sensor_id;sensor_type;location;lat;lon;timestamp;P1;durP1;ratioP1;P2;durP2;ratioP2
6133;SDS011;3098;42.678;23.364;2023-09-18T00:01:39;30.05;;;17.92;;
6133;SDS011;3098;42.678;23.364;2023-09-18T00:04:06;29.90;;;17.67;;
6133;SDS011;3098;42.678;23.364;2023-09-18T00:06:34;35.30;;;18.75;;
6133;SDS011;3098;42.678;23.364;2023-09-18T00:09:02;35.08;;;18.42;;
6133;SDS011;3098;42.678;23.364;2023-09-18T00:11:30;29.73;;;18.35;;
6133;SDS011;3098;42.678;23.364;2023-09-18T00:13:57;35.05;;;18.27;;
6133;SDS011;3098;42.678;23.364;2023-09-18T00:16:24;34.80;;;19.10;;
6133;SDS011;3098;42.678;23.364;2023-09-18T00:18:52;33.90;;;18.67;;
6133;SDS011;3098;42.678;23.364;2023-09-18T00:21:20;32.58;;;17.40;;
6133;SDS011;3098;42.678;23.364;2023-09-18T00:23:52;41.38;;;19.45;;
6133;SDS011;3098;42.678;23.364;2023-09-18T00:26:19;31.90;;;17.25;;
6133;SDS011;3098;42.678;23.364;2023-09-18T00:28:46;32.00;;;18.88;;
6133;SDS011;3098;42.678;23.364;2023-09-18T00:31:13;36.05;;;19.52;;
6133;SDS011;3098;42.678;23.364;2023-09-18T00:33:40;35.08;;;19.45;;
6133;SDS011;3098;42.678;23.364;2023-09-18T00:36:07;31.20;;;18.02;;
6133;SDS011;3098;42.678;23.364;2023-09-18T00:38:34;33.72;;;18.92;;
6133;SDS011;3098;42.678;23.364;2023-09-18T00:41:03;32.97;;;19.83;;
6133;SDS011;3098;42.678;23.364;2023-09-18T00:43:31;34.00;;;19.95;;
6133;SDS011;3098;42.678;23.364;2023-09-18T00:46:00;37.83;;;20.20;;
6133;SDS011;3098;42.678;23.364;2023-09-18T00:48:27;33.78;;;19.65;;
6133;SDS011;3098;42.678;23.364;2023-09-18T00:50:54;33.85;;;19.13;;
6133;SDS011;3098;42.678;23.364;2023-09-18T00:53:23;31.92;;;16.70;;
6133;SDS011;3098;42.678;23.364;2023-09-18T00:55:52;37.50;;;18.08;;
6133;SDS011;3098;42.678;23.364;2023-09-18T00:58:25;28.52;;;16.88;;
6133;SDS011;3098;42.678;23.364;2023-09-18T01:00:53;28.42;;;15.75;;
6133;SDS011;3098;42.678;23.364;2023-09-18T01:03:20;23.85;;;14.63;;
6133;SDS011;3098;42.678;23.364;2023-09-18T01:05:51;27.45;;;16.00;;
6133;SDS011;3098;42.678;23.364;2023-09-18T01:08:18;27.35;;;15.25;;
6133;SDS011;3098;42.678;23.364;2023-09-18T01:10:47;24.70;;;14.20;;
6133;SDS011;3098;42.678;23.364;2023-09-18T01:13:21;22.88;;;12.65;;
6133;SDS011;3098;42.678;23.364;2023-09-18T01:15:57;21.80;;;13.35;;
6133;SDS011;3098;42.678;23.364;2023-09-18T01:18:29;21.58;;;12.20;;
6133;SDS011;3098;42.678;23.364;2023-09-18T01:20:56;22.70;;;12.20;;
6133;SDS011;3098;42.678;23.364;2023-09-18T01:23:26;20.13;;;11.93;;
6133;SDS011;3098;42.678;23.364;2023-09-18T01:25:53;22.88;;;13.27;;
6133;SDS011;3098;42.678;23.364;2023-09-18T01:28:21;20.52;;;11.88;;
6133;SDS011;3098;42.678;23.364;2023-09-18T01:30:47;21.45;;;13.40;;
6133;SDS011;3098;42.678;23.364;2023-09-18T01:33:15;26.00;;;13.23;;
6133;SDS011;3098;42.678;23.364;2023-09-18T01:35:44;20.52;;;12.32;;
6133;SDS011;3098;42.678;23.364;2023-09-18T01:38:13;25.95;;;12.60;;
6133;SDS011;3098;42.678;23.364;2023-09-18T01:40:42;22.67;;;13.77;;
6133;SDS011;3098;42.678;23.364;2023-09-18T01:43:10;23.63;;;12.02;;
6133;SDS011;3098;42.678;23.364;2023-09-18T01:45:38;19.73;;;12.98;;
6133;SDS011;3098;42.678;23.364;2023-09-18T01:48:06;21.40;;;11.95;;
6133;SDS011;3098;42.678;23.364;2023-09-18T01:50:34;20.67;;;11.70;;
6133;SDS011;3098;42.678;23.364;2023-09-18T01:53:05;19.77;;;11.93;;
6133;SDS011;3098;42.678;23.364;2023-09-18T01:55:33;20.33;;;12.23;;
6133;SDS011;3098;42.678;23.364;2023-09-18T01:58:01;20.20;;;12.13;;
6133;SDS011;3098;42.678;23.364;2023-09-18T02:00:29;22.50;;;13.18;;
6133;SDS011;3098;42.678;23.364;2023-09-18T02:02:56;20.40;;;11.57;;
6133;SDS011;3098;42.678;23.364;2023-09-18T02:05:23;21.17;;;11.93;;
6133;SDS011;3098;42.678;23.364;2023-09-18T02:07:50;25.88;;;12.48;;
6133;SDS011;3098;42.678;23.364;2023-09-18T02:10:18;22.45;;;13.20;;
6133;SDS011;3098;42.678;23.364;2023-09-18T02:12:45;23.48;;;14.15;;
6133;SDS011;3098;42.678;23.364;2023-09-18T02:15:14;20.88;;;13.23;;
6133;SDS011;3098;42.678;23.364;2023-09-18T02:17:42;20.45;;;12.90;;
6133;SDS011;3098;42.678;23.364;2023-09-18T02:20:09;19.25;;;11.93;;
6133;SDS011;3098;42.678;23.364;2023-09-18T02:22:38;21.45;;;12.10;;
6133;SDS011;3098;42.678;23.364;2023-09-18T02:25:06;22.63;;;11.65;;
6133;SDS011;3098;42.678;23.364;2023-09-18T02:27:34;19.70;;;12.40;;
6133;SDS011;3098;42.678;23.364;2023-09-18T02:30:01;20.17;;;11.68;;
6133;SDS011;3098;42.678;23.364;2023-09-18T02:32:30;20.35;;;11.65;;
6133;SDS011;3098;42.678;23.364;2023-09-18T02:34:58;22.17;;;12.07;;
6133;SDS011;3098;42.678;23.364;2023-09-18T02:37:25;22.42;;;10.88;;
6133;SDS011;3098;42.678;23.364;2023-09-18T02:39:54;21.67;;;11.68;;
6133;SDS011;3098;42.678;23.364;2023-09-18T02:42:21;28.83;;;11.32;;
6133;SDS011;3098;42.678;23.364;2023-09-18T02:44:48;16.17;;;10.55;;
6133;SDS011;3098;42.678;23.364;2023-09-18T02:47:15;17.98;;;10.10;;
6133;SDS011;3098;42.678;23.364;2023-09-18T02:49:45;19.67;;;10.85;;
6133;SDS011;3098;42.678;23.364;2023-09-18T02:52:12;21.88;;;10.63;;
6133;SDS011;3098;42.678;23.364;2023-09-18T02:54:39;18.27;;;10.20;;
6133;SDS011;3098;42.678;23.364;2023-09-18T02:57:06;18.02;;;10.48;;
6133;SDS011;3098;42.678;23.364;2023-09-18T02:59:34;21.65;;;10.43;;
6133;SDS011;3098;42.678;23.364;2023-09-18T03:02:02;20.63;;;11.23;;
6133;SDS011;3098;42.678;23.364;2023-09-18T03:04:29;21.58;;;11.15;;
6133;SDS011;3098;42.678;23.364;2023-09-18T03:06:58;17.42;;;11.02;;
6133;SDS011;3098;42.678;23.364;2023-09-18T03:09:26;21.55;;;11.18;;
6133;SDS011;3098;42.678;23.364;2023-09-18T03:11:54;17.02;;;10.93;;
6133;SDS011;3098;42.678;23.364;2023-09-18T03:14:21;24.38;;;12.07;;
6133;SDS011;3098;42.678;23.364;2023-09-18T03:16:48;28.60;;;11.80;;
6133;SDS011;3098;42.678;23.364;2023-09-18T03:19:15;18.48;;;11.43;;
6133;SDS011;3098;42.678;23.364;2023-09-18T03:21:47;19.60;;;12.25;;
6133;SDS011;3098;42.678;23.364;2023-09-18T03:24:16;24.83;;;13.13;;
6133;SDS011;3098;42.678;23.364;2023-09-18T03:26:43;20.10;;;11.70;;
6133;SDS011;3098;42.678;23.364;2023-09-18T03:29:10;19.73;;;11.75;;
6133;SDS011;3098;42.678;23.364;2023-09-18T03:31:37;24.92;;;12.35;;
6133;SDS011;3098;42.678;23.364;2023-09-18T03:34:04;22.85;;;12.63;;
6133;SDS011;3098;42.678;23.364;2023-09-18T03:36:32;28.33;;;13.43;;
6133;SDS011;3098;42.678;23.364;2023-09-18T03:39:02;22.73;;;13.43;;
6133;SDS011;3098;42.678;23.364;2023-09-18T03:41:31;22.23;;;13.15;;
6133;SDS011;3098;42.678;23.364;2023-09-18T03:43:59;25.05;;;13.77;;
6133;SDS011;3098;42.678;23.364;2023-09-18T03:46:26;20.60;;;12.50;;
6133;SDS011;3098;42.678;23.364;2023-09-18T03:48:55;24.02;;;14.23;;
6133;SDS011;3098;42.678;23.364;2023-09-18T03:51:23;25.83;;;14.25;;
6133;SDS011;3098;42.678;23.364;2023-09-18T03:53:51;27.77;;;14.35;;
6133;SDS011;3098;42.678;23.364;2023-09-18T03:56:19;27.98;;;14.23;;
6133;SDS011;3098;42.678;23.364;2023-09-18T03:58:48;26.23;;;14.15;;
6133;SDS011;3098;42.678;23.364;2023-09-18T04:01:19;25.90;;;15.30;;
6133;SDS011;3098;42.678;23.364;2023-09-18T04:03:46;25.58;;;14.40;;
6133;SDS011;3098;42.678;23.364;2023-09-18T04:06:14;34.40;;;15.77;;
6133;SDS011;3098;42.678;23.364;2023-09-18T04:08:42;30.30;;;15.27;;
6133;SDS011;3098;42.678;23.364;2023-09-18T04:11:09;31.98;;;16.90;;
6133;SDS011;3098;42.678;23.364;2023-09-18T04:13:37;34.13;;;16.88;;
6133;SDS011;3098;42.678;23.364;2023-09-18T04:16:06;29.02;;;15.95;;
6133;SDS011;3098;42.678;23.364;2023-09-18T04:18:34;34.83;;;16.15;;
6133;SDS011;3098;42.678;23.364;2023-09-18T04:21:01;34.53;;;16.58;;
6133;SDS011;3098;42.678;23.364;2023-09-18T04:23:29;33.80;;;17.05;;
6133;SDS011;3098;42.678;23.364;2023-09-18T04:25:57;39.08;;;15.77;;
6133;SDS011;3098;42.678;23.364;2023-09-18T04:28:24;35.58;;;15.82;;
6133;SDS011;3098;42.678;23.364;2023-09-18T04:30:52;28.02;;;15.23;;
6133;SDS011;3098;42.678;23.364;2023-09-18T04:33:21;29.60;;;14.95;;
6133;SDS011;3098;42.678;23.364;2023-09-18T04:35:48;28.27;;;14.65;;
6133;SDS011;3098;42.678;23.364;2023-09-18T04:38:15;26.92;;;13.82;;
6133;SDS011;3098;42.678;23.364;2023-09-18T04:40:45;29.67;;;13.38;;
6133;SDS011;3098;42.678;23.364;2023-09-18T04:43:14;28.95;;;13.98;;
6133;SDS011;3098;42.678;23.364;2023-09-18T04:45:41;29.92;;;14.65;;
6133;SDS011;3098;42.678;23.364;2023-09-18T04:48:09;37.38;;;15.02;;
6133;SDS011;3098;42.678;23.364;2023-09-18T04:50:37;32.25;;;15.23;;
6133;SDS011;3098;42.678;23.364;2023-09-18T04:53:04;30.48;;;15.27;;
6133;SDS011;3098;42.678;23.364;2023-09-18T04:55:32;36.80;;;15.52;;
6133;SDS011;3098;42.678;23.364;2023-09-18T04:57:59;30.27;;;15.65;;
6133;SDS011;3098;42.678;23.364;2023-09-18T05:00:26;31.48;;;15.07;;
6133;SDS011;3098;42.678;23.364;2023-09-18T05:02:54;28.42;;;14.52;;
6133;SDS011;3098;42.678;23.364;2023-09-18T05:05:21;28.35;;;14.55;;
6133;SDS011;3098;42.678;23.364;2023-09-18T05:07:50;30.90;;;15.10;;
6133;SDS011;3098;42.678;23.364;2023-09-18T05:10:17;27.27;;;14.15;;
6133;SDS011;3098;42.678;23.364;2023-09-18T05:12:44;26.00;;;14.35;;
6133;SDS011;3098;42.678;23.364;2023-09-18T05:15:13;29.15;;;14.60;;
6133;SDS011;3098;42.678;23.364;2023-09-18T05:17:41;23.38;;;13.05;;
6133;SDS011;3098;42.678;23.364;2023-09-18T05:20:12;23.45;;;12.45;;
6133;SDS011;3098;42.678;23.364;2023-09-18T05:22:41;29.98;;;13.45;;
6133;SDS011;3098;42.678;23.364;2023-09-18T05:25:10;28.10;;;12.98;;
6133;SDS011;3098;42.678;23.364;2023-09-18T05:27:38;22.77;;;13.18;;
6133;SDS011;3098;42.678;23.364;2023-09-18T05:30:10;22.35;;;12.73;;
6133;SDS011;3098;42.678;23.364;2023-09-18T05:32:40;20.73;;;11.27;;
6133;SDS011;3098;42.678;23.364;2023-09-18T05:35:08;22.08;;;11.52;;
6133;SDS011;3098;42.678;23.364;2023-09-18T05:37:37;23.63;;;11.27;;
6133;SDS011;3098;42.678;23.364;2023-09-18T05:40:05;22.45;;;9.77;;
6133;SDS011;3098;42.678;23.364;2023-09-18T05:42:38;23.40;;;11.23;;
6133;SDS011;3098;42.678;23.364;2023-09-18T05:45:08;17.80;;;10.65;;
6133;SDS011;3098;42.678;23.364;2023-09-18T05:47:36;18.65;;;10.55;;
6133;SDS011;3098;42.678;23.364;2023-09-18T05:50:03;18.08;;;10.02;;
6133;SDS011;3098;42.678;23.364;2023-09-18T05:52:32;19.73;;;10.82;;
6133;SDS011;3098;42.678;23.364;2023-09-18T05:54:59;16.35;;;10.05;;
6133;SDS011;3098;42.678;23.364;2023-09-18T05:57:26;18.45;;;9.25;;
6133;SDS011;3098;42.678;23.364;2023-09-18T05:59:55;15.90;;;8.73;;
6133;SDS011;3098;42.678;23.364;2023-09-18T06:02:23;23.70;;;10.18;;
6133;SDS011;3098;42.678;23.364;2023-09-18T06:04:54;21.45;;;9.35;;
6133;SDS011;3098;42.678;23.364;2023-09-18T06:07:23;19.23;;;9.57;;
6133;SDS011;3098;42.678;23.364;2023-09-18T06:09:50;15.73;;;8.65;;
6133;SDS011;3098;42.678;23.364;2023-09-18T06:12:17;17.05;;;8.23;;
6133;SDS011;3098;42.678;23.364;2023-09-18T06:14:44;14.35;;;8.02;;
6133;SDS011;3098;42.678;23.364;2023-09-18T06:17:14;14.43;;;7.63;;
6133;SDS011;3098;42.678;23.364;2023-09-18T06:19:42;11.32;;;7.47;;
6133;SDS011;3098;42.678;23.364;2023-09-18T06:22:14;14.20;;;8.63;;
6133;SDS011;3098;42.678;23.364;2023-09-18T06:24:42;12.75;;;7.32;;
6133;SDS011;3098;42.678;23.364;2023-09-18T06:27:09;18.08;;;7.97;;
6133;SDS011;3098;42.678;23.364;2023-09-18T06:29:36;12.63;;;7.97;;
6133;SDS011;3098;42.678;23.364;2023-09-18T06:32:04;16.88;;;8.52;;
6133;SDS011;3098;42.678;23.364;2023-09-18T06:34:34;10.55;;;7.40;;
6133;SDS011;3098;42.678;23.364;2023-09-18T06:37:01;16.80;;;7.97;;
6133;SDS011;3098;42.678;23.364;2023-09-18T06:39:31;16.75;;;8.88;;
6133;SDS011;3098;42.678;23.364;2023-09-18T06:41:58;13.57;;;8.40;;
6133;SDS011;3098;42.678;23.364;2023-09-18T06:44:26;12.60;;;8.60;;
6133;SDS011;3098;42.678;23.364;2023-09-18T06:46:53;63.00;;;26.42;;
6133;SDS011;3098;42.678;23.364;2023-09-18T06:49:21;16.17;;;8.63;;
6133;SDS011;3098;42.678;23.364;2023-09-18T06:51:54;14.57;;;8.13;;
6133;SDS011;3098;42.678;23.364;2023-09-18T06:54:21;17.65;;;9.02;;
6133;SDS011;3098;42.678;23.364;2023-09-18T06:56:49;14.95;;;9.13;;
6133;SDS011;3098;42.678;23.364;2023-09-18T06:59:17;11.25;;;8.02;;
6133;SDS011;3098;42.678;23.364;2023-09-18T07:01:45;13.40;;;8.75;;
6133;SDS011;3098;42.678;23.364;2023-09-18T07:04:13;16.13;;;8.73;;
6133;SDS011;3098;42.678;23.364;2023-09-18T07:06:40;17.42;;;9.77;;
6133;SDS011;3098;42.678;23.364;2023-09-18T07:09:09;13.65;;;9.23;;
6133;SDS011;3098;42.678;23.364;2023-09-18T07:11:37;11.98;;;8.20;;
6133;SDS011;3098;42.678;23.364;2023-09-18T07:14:05;13.50;;;9.07;;
6133;SDS011;3098;42.678;23.364;2023-09-18T07:16:33;15.45;;;8.93;;
6133;SDS011;3098;42.678;23.364;2023-09-18T07:19:00;13.30;;;9.25;;
6133;SDS011;3098;42.678;23.364;2023-09-18T07:21:30;20.77;;;10.70;;
6133;SDS011;3098;42.678;23.364;2023-09-18T07:23:57;16.58;;;10.55;;
6133;SDS011;3098;42.678;23.364;2023-09-18T07:26:27;14.45;;;8.27;;
6133;SDS011;3098;42.678;23.364;2023-09-18T07:28:54;13.45;;;9.75;;
6133;SDS011;3098;42.678;23.364;2023-09-18T07:31:21;14.13;;;9.35;;
6133;SDS011;3098;42.678;23.364;2023-09-18T07:33:48;14.80;;;8.95;;
6133;SDS011;3098;42.678;23.364;2023-09-18T07:36:18;13.18;;;9.18;;
6133;SDS011;3098;42.678;23.364;2023-09-18T07:38:45;14.27;;;8.43;;
6133;SDS011;3098;42.678;23.364;2023-09-18T07:41:12;14.35;;;8.40;;
6133;SDS011;3098;42.678;23.364;2023-09-18T07:43:42;11.63;;;8.57;;
6133;SDS011;3098;42.678;23.364;2023-09-18T07:46:09;15.60;;;10.20;;
6133;SDS011;3098;42.678;23.364;2023-09-18T07:48:36;13.75;;;9.18;;
6133;SDS011;3098;42.678;23.364;2023-09-18T07:51:03;13.90;;;8.23;;
6133;SDS011;3098;42.678;23.364;2023-09-18T07:53:30;13.23;;;8.77;;
6133;SDS011;3098;42.678;23.364;2023-09-18T07:55:58;16.48;;;9.57;;
6133;SDS011;3098;42.678;23.364;2023-09-18T07:58:26;12.30;;;8.90;;
6133;SDS011;3098;42.678;23.364;2023-09-18T08:00:55;15.48;;;9.40;;
6133;SDS011;3098;42.678;23.364;2023-09-18T08:03:23;12.93;;;8.20;;
6133;SDS011;3098;42.678;23.364;2023-09-18T08:05:51;13.15;;;8.85;;
6133;SDS011;3098;42.678;23.364;2023-09-18T08:08:19;14.23;;;8.50;;
6133;SDS011;3098;42.678;23.364;2023-09-18T08:10:47;42.63;;;24.83;;
6133;SDS011;3098;42.678;23.364;2023-09-18T08:13:16;28.08;;;16.35;;
6133;SDS011;3098;42.678;23.364;2023-09-18T08:15:44;18.90;;;14.07;;
6133;SDS011;3098;42.678;23.364;2023-09-18T08:18:13;12.85;;;8.88;;
6133;SDS011;3098;42.678;23.364;2023-09-18T08:20:41;13.35;;;8.63;;
6133;SDS011;3098;42.678;23.364;2023-09-18T08:23:09;11.50;;;7.82;;
6133;SDS011;3098;42.678;23.364;2023-09-18T08:25:37;13.68;;;8.73;;
6133;SDS011;3098;42.678;23.364;2023-09-18T08:28:07;12.27;;;7.97;;
6133;SDS011;3098;42.678;23.364;2023-09-18T08:30:34;9.75;;;7.97;;
6133;SDS011;3098;42.678;23.364;2023-09-18T08:33:02;11.63;;;7.72;;
6133;SDS011;3098;42.678;23.364;2023-09-18T08:35:32;10.20;;;7.32;;
6133;SDS011;3098;42.678;23.364;2023-09-18T08:37:59;14.43;;;7.90;;
6133;SDS011;3098;42.678;23.364;2023-09-18T08:40:28;11.70;;;8.27;;
6133;SDS011;3098;42.678;23.364;2023-09-18T08:42:56;12.15;;;7.80;;
6133;SDS011;3098;42.678;23.364;2023-09-18T08:45:33;11.85;;;8.40;;
6133;SDS011;3098;42.678;23.364;2023-09-18T08:48:04;14.05;;;8.45;;
6133;SDS011;3098;42.678;23.364;2023-09-18T08:50:35;14.35;;;8.52;;
6133;SDS011;3098;42.678;23.364;2023-09-18T08:53:03;12.20;;;8.60;;
6133;SDS011;3098;42.678;23.364;2023-09-18T08:55:31;14.07;;;8.60;;
6133;SDS011;3098;42.678;23.364;2023-09-18T08:58:00;14.73;;;8.80;;
6133;SDS011;3098;42.678;23.364;2023-09-18T09:00:28;15.93;;;9.23;;
6133;SDS011;3098;42.678;23.364;2023-09-18T09:02:57;14.88;;;8.88;;
6133;SDS011;3098;42.678;23.364;2023-09-18T09:05:25;12.70;;;7.93;;
6133;SDS011;3098;42.678;23.364;2023-09-18T09:07:56;10.00;;;6.90;;
6133;SDS011;3098;42.678;23.364;2023-09-18T09:10:24;12.80;;;7.95;;
6133;SDS011;3098;42.678;23.364;2023-09-18T09:12:55;12.63;;;7.80;;
6133;SDS011;3098;42.678;23.364;2023-09-18T09:15:24;11.45;;;7.45;;
6133;SDS011;3098;42.678;23.364;2023-09-18T09:18:01;13.02;;;8.00;;
6133;SDS011;3098;42.678;23.364;2023-09-18T09:20:31;12.82;;;8.23;;
6133;SDS011;3098;42.678;23.364;2023-09-18T09:23:02;14.50;;;7.80;;
6133;SDS011;3098;42.678;23.364;2023-09-18T09:25:32;14.65;;;8.57;;
6133;SDS011;3098;42.678;23.364;2023-09-18T09:28:03;10.73;;;7.43;;
6133;SDS011;3098;42.678;23.364;2023-09-18T09:30:32;12.90;;;8.02;;
6133;SDS011;3098;42.678;23.364;2023-09-18T09:33:02;9.48;;;6.93;;
6133;SDS011;3098;42.678;23.364;2023-09-18T09:35:31;11.05;;;7.35;;
6133;SDS011;3098;42.678;23.364;2023-09-18T09:38:06;14.63;;;8.38;;
6133;SDS011;3098;42.678;23.364;2023-09-18T09:40:38;13.57;;;7.55;;
6133;SDS011;3098;42.678;23.364;2023-09-18T09:43:08;9.77;;;7.03;;
6133;SDS011;3098;42.678;23.364;2023-09-18T09:45:38;10.63;;;6.50;;
6133;SDS011;3098;42.678;23.364;2023-09-18T09:48:07;11.18;;;7.38;;
6133;SDS011;3098;42.678;23.364;2023-09-18T09:50:44;9.48;;;6.55;;
6133;SDS011;3098;42.678;23.364;2023-09-18T09:53:14;10.32;;;7.20;;
6133;SDS011;3098;42.678;23.364;2023-09-18T09:55:41;9.48;;;6.88;;
6133;SDS011;3098;42.678;23.364;2023-09-18T09:58:09;10.52;;;6.60;;
6133;SDS011;3098;42.678;23.364;2023-09-18T10:00:40;11.40;;;6.45;;
6133;SDS011;3098;42.678;23.364;2023-09-18T10:03:12;13.13;;;6.65;;
6133;SDS011;3098;42.678;23.364;2023-09-18T10:05:42;9.35;;;6.43;;
6133;SDS011;3098;42.678;23.364;2023-09-18T10:08:10;10.75;;;6.35;;
6133;SDS011;3098;42.678;23.364;2023-09-18T10:10:42;9.93;;;6.53;;
6133;SDS011;3098;42.678;23.364;2023-09-18T10:13:15;9.63;;;6.53;;
6133;SDS011;3098;42.678;23.364;2023-09-18T10:15:46;12.48;;;6.28;;
6133;SDS011;3098;42.678;23.364;2023-09-18T10:18:17;9.65;;;6.32;;
6133;SDS011;3098;42.678;23.364;2023-09-18T10:20:50;9.15;;;5.95;;
6133;SDS011;3098;42.678;23.364;2023-09-18T10:23:26;9.43;;;6.43;;
6133;SDS011;3098;42.678;23.364;2023-09-18T10:26:02;10.63;;;6.00;;
6133;SDS011;3098;42.678;23.364;2023-09-18T10:28:31;12.43;;;6.25;;
6133;SDS011;3098;42.678;23.364;2023-09-18T10:30:59;11.60;;;5.72;;
6133;SDS011;3098;42.678;23.364;2023-09-18T10:33:28;11.13;;;6.05;;
6133;SDS011;3098;42.678;23.364;2023-09-18T10:35:56;63.92;;;42.95;;
6133;SDS011;3098;42.678;23.364;2023-09-18T10:38:26;6.50;;;5.00;;
6133;SDS011;3098;42.678;23.364;2023-09-18T10:40:56;13.80;;;5.90;;
6133;SDS011;3098;42.678;23.364;2023-09-18T10:43:27;10.05;;;5.70;;
6133;SDS011;3098;42.678;23.364;2023-09-18T10:45:54;9.75;;;4.75;;
6133;SDS011;3098;42.678;23.364;2023-09-18T10:48:22;6.72;;;4.93;;
6133;SDS011;3098;42.678;23.364;2023-09-18T10:50:52;7.93;;;5.40;;
6133;SDS011;3098;42.678;23.364;2023-09-18T10:53:20;10.07;;;5.35;;
6133;SDS011;3098;42.678;23.364;2023-09-18T10:55:48;8.65;;;4.68;;
6133;SDS011;3098;42.678;23.364;2023-09-18T10:58:23;8.00;;;5.20;;
6133;SDS011;3098;42.678;23.364;2023-09-18T11:00:53;6.25;;;4.63;;
6133;SDS011;3098;42.678;23.364;2023-09-18T11:03:22;11.55;;;5.20;;
6133;SDS011;3098;42.678;23.364;2023-09-18T11:06:01;6.00;;;4.45;;
6133;SDS011;3098;42.678;23.364;2023-09-18T11:08:31;9.13;;;5.10;;
6133;SDS011;3098;42.678;23.364;2023-09-18T11:11:01;7.68;;;5.35;;
6133;SDS011;3098;42.678;23.364;2023-09-18T11:13:35;10.48;;;4.82;;
6133;SDS011;3098;42.678;23.364;2023-09-18T11:16:17;8.30;;;4.55;;
6133;SDS011;3098;42.678;23.364;2023-09-18T11:19:10;7.88;;;4.20;;
6133;SDS011;3098;42.678;23.364;2023-09-18T11:21:39;5.60;;;4.47;;
6133;SDS011;3098;42.678;23.364;2023-09-18T11:24:14;7.38;;;5.22;;
6133;SDS011;3098;42.678;23.364;2023-09-18T11:26:44;8.23;;;4.95;;
6133;SDS011;3098;42.678;23.364;2023-09-18T11:29:14;6.30;;;4.30;;
6133;SDS011;3098;42.678;23.364;2023-09-18T11:31:46;7.13;;;4.70;;
6133;SDS011;3098;42.678;23.364;2023-09-18T11:34:14;6.07;;;4.53;;
6133;SDS011;3098;42.678;23.364;2023-09-18T11:36:48;5.85;;;4.32;;
6133;SDS011;3098;42.678;23.364;2023-09-18T11:42:10;13.75;;;4.35;;
6133;SDS011;3098;42.678;23.364;2023-09-18T11:44:39;5.60;;;4.40;;
6133;SDS011;3098;42.678;23.364;2023-09-18T11:47:13;7.60;;;5.25;;
6133;SDS011;3098;42.678;23.364;2023-09-18T11:49:47;6.70;;;4.82;;
6133;SDS011;3098;42.678;23.364;2023-09-18T11:52:20;6.97;;;4.13;;
6133;SDS011;3098;42.678;23.364;2023-09-18T11:54:47;11.65;;;4.72;;
6133;SDS011;3098;42.678;23.364;2023-09-18T11:57:16;8.85;;;4.45;;
6133;SDS011;3098;42.678;23.364;2023-09-18T11:59:45;6.38;;;5.00;;
6133;SDS011;3098;42.678;23.364;2023-09-18T12:02:17;7.90;;;4.22;;
6133;SDS011;3098;42.678;23.364;2023-09-18T12:04:53;8.73;;;4.70;;
6133;SDS011;3098;42.678;23.364;2023-09-18T12:07:20;32.92;;;18.23;;
6133;SDS011;3098;42.678;23.364;2023-09-18T12:09:47;7.93;;;5.20;;
6133;SDS011;3098;42.678;23.364;2023-09-18T12:12:15;6.22;;;4.40;;
6133;SDS011;3098;42.678;23.364;2023-09-18T12:14:43;7.03;;;5.15;;
6133;SDS011;3098;42.678;23.364;2023-09-18T12:17:16;7.18;;;4.82;;
6133;SDS011;3098;42.678;23.364;2023-09-18T12:19:51;9.55;;;5.20;;
6133;SDS011;3098;42.678;23.364;2023-09-18T12:22:22;7.40;;;5.15;;
6133;SDS011;3098;42.678;23.364;2023-09-18T12:24:51;10.98;;;5.00;;
6133;SDS011;3098;42.678;23.364;2023-09-18T12:27:18;7.40;;;5.03;;
6133;SDS011;3098;42.678;23.364;2023-09-18T12:29:45;14.60;;;4.72;;
6133;SDS011;3098;42.678;23.364;2023-09-18T12:32:15;10.40;;;5.00;;
6133;SDS011;3098;42.678;23.364;2023-09-18T12:34:42;11.90;;;4.93;;
6133;SDS011;3098;42.678;23.364;2023-09-18T12:37:09;8.68;;;5.28;;
6133;SDS011;3098;42.678;23.364;2023-09-18T12:39:39;9.98;;;4.88;;
6133;SDS011;3098;42.678;23.364;2023-09-18T12:42:07;9.10;;;5.00;;
6133;SDS011;3098;42.678;23.364;2023-09-18T12:44:35;11.00;;;5.05;;
6133;SDS011;3098;42.678;23.364;2023-09-18T12:47:02;5.95;;;4.78;;
6133;SDS011;3098;42.678;23.364;2023-09-18T12:49:33;7.30;;;4.75;;
6133;SDS011;3098;42.678;23.364;2023-09-18T12:52:00;9.48;;;4.45;;
6133;SDS011;3098;42.678;23.364;2023-09-18T12:54:38;7.82;;;5.32;;
6133;SDS011;3098;42.678;23.364;2023-09-18T12:57:06;8.10;;;4.93;;
6133;SDS011;3098;42.678;23.364;2023-09-18T12:59:36;7.53;;;4.55;;
6133;SDS011;3098;42.678;23.364;2023-09-18T13:02:04;7.40;;;4.80;;
6133;SDS011;3098;42.678;23.364;2023-09-18T13:04:34;9.60;;;4.68;;
6133;SDS011;3098;42.678;23.364;2023-09-18T13:07:03;7.28;;;4.50;;
6133;SDS011;3098;42.678;23.364;2023-09-18T13:09:32;7.93;;;5.05;;
6133;SDS011;3098;42.678;23.364;2023-09-18T13:12:00;7.88;;;4.90;;
6133;SDS011;3098;42.678;23.364;2023-09-18T13:14:29;6.63;;;4.30;;
6133;SDS011;3098;42.678;23.364;2023-09-18T13:17:00;5.97;;;4.53;;
6133;SDS011;3098;42.678;23.364;2023-09-18T13:19:31;9.82;;;5.45;;
6133;SDS011;3098;42.678;23.364;2023-09-18T13:22:00;7.95;;;4.72;;
6133;SDS011;3098;42.678;23.364;2023-09-18T13:24:30;8.20;;;5.57;;
6133;SDS011;3098;42.678;23.364;2023-09-18T13:26:58;8.25;;;4.90;;
6133;SDS011;3098;42.678;23.364;2023-09-18T13:29:26;9.02;;;4.65;;
6133;SDS011;3098;42.678;23.364;2023-09-18T13:31:53;10.77;;;4.82;;
6133;SDS011;3098;42.678;23.364;2023-09-18T13:34:20;6.45;;;4.20;;
6133;SDS011;3098;42.678;23.364;2023-09-18T13:36:48;6.82;;;4.63;;
6133;SDS011;3098;42.678;23.364;2023-09-18T13:39:17;6.80;;;4.75;;
6133;SDS011;3098;42.678;23.364;2023-09-18T13:41:45;8.02;;;4.72;;
6133;SDS011;3098;42.678;23.364;2023-09-18T13:44:14;9.18;;;4.80;;
6133;SDS011;3098;42.678;23.364;2023-09-18T13:46:41;13.27;;;4.63;;
6133;SDS011;3098;42.678;23.364;2023-09-18T13:49:09;10.75;;;4.45;;
6133;SDS011;3098;42.678;23.364;2023-09-18T13:51:36;7.07;;;5.03;;
6133;SDS011;3098;42.678;23.364;2023-09-18T13:54:04;6.70;;;4.82;;
6133;SDS011;3098;42.678;23.364;2023-09-18T13:56:34;6.93;;;4.25;;
6133;SDS011;3098;42.678;23.364;2023-09-18T13:59:01;47.88;;;5.85;;
6133;SDS011;3098;42.678;23.364;2023-09-18T14:01:30;46.25;;;7.20;;
6133;SDS011;3098;42.678;23.364;2023-09-18T14:03:58;8.68;;;5.15;;
6133;SDS011;3098;42.678;23.364;2023-09-18T14:06:26;95.10;;;11.98;;
6133;SDS011;3098;42.678;23.364;2023-09-18T14:08:53;7.63;;;4.55;;
6133;SDS011;3098;42.678;23.364;2023-09-18T14:11:20;7.40;;;4.20;;
6133;SDS011;3098;42.678;23.364;2023-09-18T14:13:49;7.72;;;4.63;;
6133;SDS011;3098;42.678;23.364;2023-09-18T14:16:16;8.35;;;4.38;;
6133;SDS011;3098;42.678;23.364;2023-09-18T14:18:43;6.50;;;3.75;;
6133;SDS011;3098;42.678;23.364;2023-09-18T14:21:10;7.63;;;4.63;;
6133;SDS011;3098;42.678;23.364;2023-09-18T14:23:38;7.28;;;4.20;;
6133;SDS011;3098;42.678;23.364;2023-09-18T14:26:06;6.68;;;4.22;;
6133;SDS011;3098;42.678;23.364;2023-09-18T14:28:33;6.07;;;4.78;;
6133;SDS011;3098;42.678;23.364;2023-09-18T14:31:03;8.98;;;4.68;;
6133;SDS011;3098;42.678;23.364;2023-09-18T14:33:30;6.78;;;4.53;;
6133;SDS011;3098;42.678;23.364;2023-09-18T14:35:58;7.70;;;4.50;;
6133;SDS011;3098;42.678;23.364;2023-09-18T14:38:26;5.97;;;4.35;;
6133;SDS011;3098;42.678;23.364;2023-09-18T14:40:52;11.25;;;4.53;;
6133;SDS011;3098;42.678;23.364;2023-09-18T14:43:26;7.43;;;4.35;;
6133;SDS011;3098;42.678;23.364;2023-09-18T14:45:53;8.30;;;4.75;;
6133;SDS011;3098;42.678;23.364;2023-09-18T14:48:22;5.97;;;4.20;;
6133;SDS011;3098;42.678;23.364;2023-09-18T14:50:53;7.50;;;4.28;;
6133;SDS011;3098;42.678;23.364;2023-09-18T14:53:21;8.82;;;4.72;;
6133;SDS011;3098;42.678;23.364;2023-09-18T14:55:48;6.95;;;4.40;;
6133;SDS011;3098;42.678;23.364;2023-09-18T14:58:15;8.70;;;4.70;;